sensor_id;sensor_type;location;lat;lon;timestamp;P1;durP1;ratioP1;P2;durP2;ratioP2
11921;SDS011;6021;51.182;3.160;2023-04-24T00:00:55;3.67;;;3.00;;
11921;SDS011;6021;51.182;3.160;2023-04-24T00:03:25;7.33;;;3.60;;
11921;SDS011;6021;51.182;3.160;2023-04-24T00:05:54;7.07;;;3.90;;
11921;SDS011;6021;51.182;3.160;2023-04-24T00:08:23;6.10;;;4.57;;
11921;SDS011;6021;51.182;3.160;2023-04-24T00:10:51;7.27;;;5.27;;
11921;SDS011;6021;51.182;3.160;2023-04-24T00:13:20;11.47;;;6.90;;
11921;SDS011;6021;51.182;3.160;2023-04-24T00:15:48;13.80;;;9.80;;
11921;SDS011;6021;51.182;3.160;2023-04-24T00:18:17;17.87;;;10.87;;
11921;SDS011;6021;51.182;3.160;2023-04-24T00:20:53;20.57;;;11.80;;
11921;SDS011;6021;51.182;3.160;2023-04-24T00:23:21;21.80;;;13.43;;
11921;SDS011;6021;51.182;3.160;2023-04-24T00:25:50;21.60;;;13.83;;
11921;SDS011;6021;51.182;3.160;2023-04-24T00:28:18;23.70;;;14.20;;
11921;SDS011;6021;51.182;3.160;2023-04-24T00:30:48;23.80;;;15.43;;
11921;SDS011;6021;51.182;3.160;2023-04-24T00:33:17;24.10;;;16.03;;
11921;SDS011;6021;51.182;3.160;2023-04-24T00:35:47;25.90;;;16.53;;
11921;SDS011;6021;51.182;3.160;2023-04-24T00:38:17;25.93;;;17.83;;
11921;SDS011;6021;51.182;3.160;2023-04-24T00:43:21;26.93;;;17.90;;
11921;SDS011;6021;51.182;3.160;2023-04-24T00:45:51;26.37;;;18.40;;
11921;SDS011;6021;51.182;3.160;2023-04-24T00:48:19;36.00;;;20.13;;
11921;SDS011;6021;51.182;3.160;2023-04-24T00:50:53;35.47;;;20.03;;
11921;SDS011;6021;51.182;3.160;2023-04-24T00:53:22;28.17;;;19.93;;
11921;SDS011;6021;51.182;3.160;2023-04-24T00:55:56;29.47;;;19.83;;
11921;SDS011;6021;51.182;3.160;2023-04-24T00:58:32;31.33;;;21.30;;
11921;SDS011;6021;51.182;3.160;2023-04-24T01:01:01;30.33;;;20.90;;
11921;SDS011;6021;51.182;3.160;2023-04-24T01:06:32;32.43;;;20.97;;
11921;SDS011;6021;51.182;3.160;2023-04-24T01:09:39;32.77;;;20.50;;
11921;SDS011;6021;51.182;3.160;2023-04-24T01:12:15;33.93;;;19.50;;
11921;SDS011;6021;51.182;3.160;2023-04-24T01:14:48;28.37;;;19.90;;
11921;SDS011;6021;51.182;3.160;2023-04-24T01:17:18;27.90;;;18.60;;
11921;SDS011;6021;51.182;3.160;2023-04-24T01:19:52;27.90;;;18.80;;
11921;SDS011;6021;51.182;3.160;2023-04-24T01:22:25;27.80;;;16.77;;
11921;SDS011;6021;51.182;3.160;2023-04-24T01:24:54;29.07;;;17.53;;
11921;SDS011;6021;51.182;3.160;2023-04-24T01:27:24;26.60;;;17.20;;
11921;SDS011;6021;51.182;3.160;2023-04-24T01:29:52;24.50;;;16.23;;
11921;SDS011;6021;51.182;3.160;2023-04-24T01:32:24;21.97;;;13.40;;
11921;SDS011;6021;51.182;3.160;2023-04-24T01:34:54;20.60;;;11.77;;
11921;SDS011;6021;51.182;3.160;2023-04-24T01:37:28;11.63;;;7.50;;
11921;SDS011;6021;51.182;3.160;2023-04-24T01:40:16;8.80;;;5.53;;
11921;SDS011;6021;51.182;3.160;2023-04-24T01:42:41;12.30;;;5.20;;
11921;SDS011;6021;51.182;3.160;2023-04-24T01:45:14;10.77;;;5.10;;
11921;SDS011;6021;51.182;3.160;2023-04-24T01:47:43;13.00;;;5.43;;
11921;SDS011;6021;51.182;3.160;2023-04-24T01:50:18;13.87;;;6.30;;
11921;SDS011;6021;51.182;3.160;2023-04-24T01:52:43;11.87;;;6.03;;
11921;SDS011;6021;51.182;3.160;2023-04-24T01:55:11;12.70;;;6.03;;
11921;SDS011;6021;51.182;3.160;2023-04-24T01:57:41;12.70;;;6.40;;
11921;SDS011;6021;51.182;3.160;2023-04-24T02:00:10;13.50;;;6.67;;
11921;SDS011;6021;51.182;3.160;2023-04-24T02:02:39;14.50;;;7.40;;
11921;SDS011;6021;51.182;3.160;2023-04-24T02:05:08;15.80;;;7.57;;
11921;SDS011;6021;51.182;3.160;2023-04-24T02:07:41;17.00;;;8.57;;
11921;SDS011;6021;51.182;3.160;2023-04-24T02:10:11;17.17;;;8.27;;
11921;SDS011;6021;51.182;3.160;2023-04-24T02:12:42;10.63;;;7.20;;
11921;SDS011;6021;51.182;3.160;2023-04-24T02:15:15;16.03;;;7.77;;
11921;SDS011;6021;51.182;3.160;2023-04-24T02:17:46;12.30;;;7.30;;
11921;SDS011;6021;51.182;3.160;2023-04-24T02:20:19;14.47;;;7.97;;
11921;SDS011;6021;51.182;3.160;2023-04-24T02:22:47;15.47;;;7.60;;
11921;SDS011;6021;51.182;3.160;2023-04-24T02:25:17;13.50;;;9.53;;
11921;SDS011;6021;51.182;3.160;2023-04-24T02:27:47;13.13;;;9.20;;
11921;SDS011;6021;51.182;3.160;2023-04-24T02:30:20;20.00;;;11.60;;
11921;SDS011;6021;51.182;3.160;2023-04-24T02:32:49;21.80;;;12.40;;
11921;SDS011;6021;51.182;3.160;2023-04-24T02:35:20;21.33;;;12.17;;
11921;SDS011;6021;51.182;3.160;2023-04-24T02:37:48;18.43;;;12.90;;
11921;SDS011;6021;51.182;3.160;2023-04-24T02:40:25;18.87;;;13.30;;
11921;SDS011;6021;51.182;3.160;2023-04-24T02:42:53;22.47;;;13.47;;
11921;SDS011;6021;51.182;3.160;2023-04-24T02:45:30;19.97;;;14.17;;
11921;SDS011;6021;51.182;3.160;2023-04-24T02:47:57;23.47;;;14.60;;
11921;SDS011;6021;51.182;3.160;2023-04-24T02:50:26;23.77;;;15.40;;
11921;SDS011;6021;51.182;3.160;2023-04-24T02:52:59;25.33;;;15.80;;
11921;SDS011;6021;51.182;3.160;2023-04-24T02:55:31;23.07;;;15.57;;
11921;SDS011;6021;51.182;3.160;2023-04-24T02:57:59;23.90;;;16.30;;
11921;SDS011;6021;51.182;3.160;2023-04-24T03:00:32;22.50;;;15.77;;
11921;SDS011;6021;51.182;3.160;2023-04-24T03:03:03;19.97;;;14.40;;
11921;SDS011;6021;51.182;3.160;2023-04-24T03:05:33;26.97;;;14.70;;
11921;SDS011;6021;51.182;3.160;2023-04-24T03:08:16;25.27;;;15.63;;
11921;SDS011;6021;51.182;3.160;2023-04-24T03:13:20;22.33;;;15.00;;
11921;SDS011;6021;51.182;3.160;2023-04-24T03:15:56;22.57;;;15.20;;
11921;SDS011;6021;51.182;3.160;2023-04-24T03:18:29;21.43;;;14.47;;
11921;SDS011;6021;51.182;3.160;2023-04-24T03:20:55;16.10;;;13.20;;
11921;SDS011;6021;51.182;3.160;2023-04-24T03:23:29;21.13;;;14.00;;
11921;SDS011;6021;51.182;3.160;2023-04-24T03:25:58;21.57;;;13.77;;
11921;SDS011;6021;51.182;3.160;2023-04-24T03:28:28;17.43;;;13.13;;
11921;SDS011;6021;51.182;3.160;2023-04-24T03:31:03;17.20;;;12.40;;
11921;SDS011;6021;51.182;3.160;2023-04-24T03:33:34;17.40;;;13.23;;
11921;SDS011;6021;51.182;3.160;2023-04-24T03:36:07;18.50;;;12.30;;
11921;SDS011;6021;51.182;3.160;2023-04-24T03:38:53;14.90;;;11.23;;
11921;SDS011;6021;51.182;3.160;2023-04-24T03:41:32;16.70;;;11.80;;
11921;SDS011;6021;51.182;3.160;2023-04-24T03:44:03;16.93;;;11.47;;
11921;SDS011;6021;51.182;3.160;2023-04-24T03:46:48;19.00;;;11.47;;
11921;SDS011;6021;51.182;3.160;2023-04-24T03:49:14;18.60;;;12.37;;
11921;SDS011;6021;51.182;3.160;2023-04-24T03:51:45;13.43;;;11.30;;
11921;SDS011;6021;51.182;3.160;2023-04-24T03:56:55;18.33;;;12.50;;
11921;SDS011;6021;51.182;3.160;2023-04-24T03:59:45;18.30;;;11.90;;
11921;SDS011;6021;51.182;3.160;2023-04-24T04:02:19;20.90;;;12.77;;
11921;SDS011;6021;51.182;3.160;2023-04-24T04:04:49;18.97;;;12.23;;
11921;SDS011;6021;51.182;3.160;2023-04-24T04:07:27;16.53;;;13.30;;
11921;SDS011;6021;51.182;3.160;2023-04-24T04:10:02;18.53;;;12.37;;
11921;SDS011;6021;51.182;3.160;2023-04-24T04:12:38;18.63;;;12.80;;
11921;SDS011;6021;51.182;3.160;2023-04-24T04:15:10;17.03;;;13.07;;
11921;SDS011;6021;51.182;3.160;2023-04-24T04:17:54;21.00;;;13.23;;
11921;SDS011;6021;51.182;3.160;2023-04-24T04:23:10;20.30;;;14.20;;
11921;SDS011;6021;51.182;3.160;2023-04-24T04:25:38;16.73;;;13.73;;
11921;SDS011;6021;51.182;3.160;2023-04-24T04:28:06;16.87;;;13.53;;
11921;SDS011;6021;51.182;3.160;2023-04-24T04:30:47;20.13;;;14.20;;
11921;SDS011;6021;51.182;3.160;2023-04-24T04:33:13;20.00;;;13.77;;
11921;SDS011;6021;51.182;3.160;2023-04-24T04:35:47;22.00;;;14.20;;
11921;SDS011;6021;51.182;3.160;2023-04-24T04:38:21;24.40;;;15.87;;
11921;SDS011;6021;51.182;3.160;2023-04-24T04:41:00;21.00;;;16.07;;
11921;SDS011;6021;51.182;3.160;2023-04-24T04:43:33;24.07;;;16.63;;
11921;SDS011;6021;51.182;3.160;2023-04-24T04:46:10;25.17;;;16.30;;
11921;SDS011;6021;51.182;3.160;2023-04-24T04:48:47;23.47;;;16.87;;
11921;SDS011;6021;51.182;3.160;2023-04-24T04:51:21;28.03;;;18.03;;
11921;SDS011;6021;51.182;3.160;2023-04-24T04:53:56;29.20;;;18.23;;
11921;SDS011;6021;51.182;3.160;2023-04-24T04:56:25;30.40;;;18.20;;
11921;SDS011;6021;51.182;3.160;2023-04-24T04:59:00;23.63;;;16.60;;
11921;SDS011;6021;51.182;3.160;2023-04-24T05:01:32;25.33;;;16.93;;
11921;SDS011;6021;51.182;3.160;2023-04-24T05:04:03;23.60;;;17.00;;
11921;SDS011;6021;51.182;3.160;2023-04-24T05:06:48;28.70;;;18.13;;
11921;SDS011;6021;51.182;3.160;2023-04-24T05:09:15;26.47;;;17.27;;
11921;SDS011;6021;51.182;3.160;2023-04-24T05:11:44;22.73;;;15.87;;
11921;SDS011;6021;51.182;3.160;2023-04-24T05:17:06;28.30;;;16.40;;
11921;SDS011;6021;51.182;3.160;2023-04-24T05:19:38;24.83;;;15.03;;
11921;SDS011;6021;51.182;3.160;2023-04-24T05:22:13;22.90;;;14.77;;
11921;SDS011;6021;51.182;3.160;2023-04-24T05:24:43;21.33;;;14.73;;
11921;SDS011;6021;51.182;3.160;2023-04-24T05:27:17;23.40;;;14.17;;
11921;SDS011;6021;51.182;3.160;2023-04-24T05:29:58;23.27;;;13.13;;
11921;SDS011;6021;51.182;3.160;2023-04-24T05:32:31;23.67;;;13.03;;
11921;SDS011;6021;51.182;3.160;2023-04-24T05:35:05;21.37;;;12.60;;
11921;SDS011;6021;51.182;3.160;2023-04-24T05:37:56;22.80;;;12.80;;
11921;SDS011;6021;51.182;3.160;2023-04-24T05:40:28;20.23;;;11.93;;
11921;SDS011;6021;51.182;3.160;2023-04-24T05:42:58;19.00;;;12.50;;
11921;SDS011;6021;51.182;3.160;2023-04-24T05:45:32;20.10;;;12.43;;
11921;SDS011;6021;51.182;3.160;2023-04-24T05:48:18;21.87;;;12.20;;
11921;SDS011;6021;51.182;3.160;2023-04-24T05:50:40;26.40;;;12.17;;
11921;SDS011;6021;51.182;3.160;2023-04-24T05:53:18;16.83;;;10.43;;
11921;SDS011;6021;51.182;3.160;2023-04-24T05:55:50;18.50;;;9.83;;
11921;SDS011;6021;51.182;3.160;2023-04-24T05:58:39;18.10;;;8.33;;
11921;SDS011;6021;51.182;3.160;2023-04-24T06:01:20;16.20;;;8.53;;
11921;SDS011;6021;51.182;3.160;2023-04-24T06:03:55;17.57;;;8.20;;
11921;SDS011;6021;51.182;3.160;2023-04-24T06:06:29;16.53;;;8.27;;
11921;SDS011;6021;51.182;3.160;2023-04-24T06:08:59;16.40;;;8.87;;
11921;SDS011;6021;51.182;3.160;2023-04-24T06:11:36;17.80;;;8.20;;
11921;SDS011;6021;51.182;3.160;2023-04-24T06:14:07;14.90;;;7.90;;
11921;SDS011;6021;51.182;3.160;2023-04-24T06:19:28;18.20;;;8.57;;
11921;SDS011;6021;51.182;3.160;2023-04-24T06:22:02;12.77;;;8.37;;
11921;SDS011;6021;51.182;3.160;2023-04-24T06:24:51;19.07;;;9.13;;
11921;SDS011;6021;51.182;3.160;2023-04-24T06:27:40;16.50;;;9.10;;
11921;SDS011;6021;51.182;3.160;2023-04-24T06:30:11;13.87;;;8.60;;
11921;SDS011;6021;51.182;3.160;2023-04-24T06:32:43;13.50;;;8.00;;
11921;SDS011;6021;51.182;3.160;2023-04-24T06:35:24;15.07;;;8.77;;
11921;SDS011;6021;51.182;3.160;2023-04-24T06:38:08;15.17;;;8.80;;
11921;SDS011;6021;51.182;3.160;2023-04-24T06:40:43;15.70;;;7.73;;
11921;SDS011;6021;51.182;3.160;2023-04-24T06:43:25;16.57;;;8.60;;
11921;SDS011;6021;51.182;3.160;2023-04-24T06:46:17;14.90;;;9.00;;
11921;SDS011;6021;51.182;3.160;2023-04-24T06:48:49;20.60;;;9.70;;
11921;SDS011;6021;51.182;3.160;2023-04-24T06:51:34;18.43;;;9.10;;
11921;SDS011;6021;51.182;3.160;2023-04-24T06:54:23;14.43;;;7.73;;
11921;SDS011;6021;51.182;3.160;2023-04-24T06:57:03;16.93;;;7.70;;
11921;SDS011;6021;51.182;3.160;2023-04-24T06:59:36;16.97;;;7.33;;
11921;SDS011;6021;51.182;3.160;2023-04-24T07:02:05;15.83;;;7.27;;
11921;SDS011;6021;51.182;3.160;2023-04-24T07:04:55;15.47;;;7.50;;
11921;SDS011;6021;51.182;3.160;2023-04-24T07:07:28;14.60;;;6.77;;
11921;SDS011;6021;51.182;3.160;2023-04-24T07:09:57;13.77;;;6.13;;
11921;SDS011;6021;51.182;3.160;2023-04-24T07:12:28;13.63;;;6.20;;
11921;SDS011;6021;51.182;3.160;2023-04-24T07:14:59;12.33;;;5.33;;
11921;SDS011;6021;51.182;3.160;2023-04-24T07:17:30;10.93;;;6.13;;
11921;SDS011;6021;51.182;3.160;2023-04-24T07:20:12;13.53;;;5.53;;
11921;SDS011;6021;51.182;3.160;2023-04-24T07:22:49;12.30;;;6.13;;
11921;SDS011;6021;51.182;3.160;2023-04-24T07:25:22;16.20;;;5.87;;
11921;SDS011;6021;51.182;3.160;2023-04-24T07:27:58;18.27;;;5.40;;
11921;SDS011;6021;51.182;3.160;2023-04-24T07:30:38;8.80;;;4.77;;
11921;SDS011;6021;51.182;3.160;2023-04-24T07:33:24;12.20;;;4.37;;
11921;SDS011;6021;51.182;3.160;2023-04-24T07:35:55;11.47;;;4.60;;
11921;SDS011;6021;51.182;3.160;2023-04-24T07:38:31;11.77;;;5.00;;
11921;SDS011;6021;51.182;3.160;2023-04-24T07:41:14;7.97;;;4.10;;
11921;SDS011;6021;51.182;3.160;2023-04-24T07:43:46;9.37;;;4.33;;
11921;SDS011;6021;51.182;3.160;2023-04-24T07:46:21;8.83;;;4.70;;
11921;SDS011;6021;51.182;3.160;2023-04-24T07:48:53;13.70;;;4.93;;
11921;SDS011;6021;51.182;3.160;2023-04-24T07:51:26;11.50;;;5.03;;
11921;SDS011;6021;51.182;3.160;2023-04-24T07:53:57;11.60;;;4.43;;
11921;SDS011;6021;51.182;3.160;2023-04-24T07:56:33;11.43;;;5.07;;
11921;SDS011;6021;51.182;3.160;2023-04-24T07:59:07;12.67;;;5.07;;
11921;SDS011;6021;51.182;3.160;2023-04-24T08:01:38;10.77;;;5.23;;
11921;SDS011;6021;51.182;3.160;2023-04-24T08:04:08;10.40;;;5.80;;
11921;SDS011;6021;51.182;3.160;2023-04-24T08:06:44;12.43;;;6.20;;
11921;SDS011;6021;51.182;3.160;2023-04-24T08:09:17;13.77;;;6.30;;
11921;SDS011;6021;51.182;3.160;2023-04-24T08:11:46;12.70;;;6.40;;
11921;SDS011;6021;51.182;3.160;2023-04-24T08:14:16;9.57;;;5.70;;
11921;SDS011;6021;51.182;3.160;2023-04-24T08:16:53;9.43;;;5.20;;
11921;SDS011;6021;51.182;3.160;2023-04-24T08:19:30;12.67;;;5.00;;
11921;SDS011;6021;51.182;3.160;2023-04-24T08:22:01;9.40;;;4.70;;
11921;SDS011;6021;51.182;3.160;2023-04-24T08:24:34;12.13;;;5.20;;
11921;SDS011;6021;51.182;3.160;2023-04-24T08:27:04;8.67;;;4.97;;
11921;SDS011;6021;51.182;3.160;2023-04-24T08:29:41;9.50;;;5.47;;
11921;SDS011;6021;51.182;3.160;2023-04-24T08:32:06;11.27;;;5.83;;
11921;SDS011;6021;51.182;3.160;2023-04-24T08:34:42;10.47;;;5.40;;
11921;SDS011;6021;51.182;3.160;2023-04-24T08:37:20;11.93;;;5.43;;
11921;SDS011;6021;51.182;3.160;2023-04-24T08:40:06;7.63;;;5.03;;
11921;SDS011;6021;51.182;3.160;2023-04-24T08:42:51;9.27;;;5.60;;
11921;SDS011;6021;51.182;3.160;2023-04-24T08:45:48;10.00;;;4.97;;
11921;SDS011;6021;51.182;3.160;2023-04-24T08:48:41;8.93;;;5.13;;
11921;SDS011;6021;51.182;3.160;2023-04-24T08:51:07;8.60;;;4.77;;
11921;SDS011;6021;51.182;3.160;2023-04-24T08:53:38;10.53;;;5.07;;
11921;SDS011;6021;51.182;3.160;2023-04-24T08:56:08;9.77;;;4.87;;
11921;SDS011;6021;51.182;3.160;2023-04-24T08:58:44;7.73;;;4.63;;
11921;SDS011;6021;51.182;3.160;2023-04-24T09:01:34;9.77;;;5.00;;
11921;SDS011;6021;51.182;3.160;2023-04-24T09:04:21;8.33;;;4.67;;
11921;SDS011;6021;51.182;3.160;2023-04-24T09:06:55;8.87;;;4.97;;
11921;SDS011;6021;51.182;3.160;2023-04-24T09:09:28;9.30;;;5.00;;
11921;SDS011;6021;51.182;3.160;2023-04-24T09:12:05;10.73;;;5.00;;
11921;SDS011;6021;51.182;3.160;2023-04-24T09:14:40;6.80;;;4.63;;
11921;SDS011;6021;51.182;3.160;2023-04-24T09:17:22;6.80;;;4.43;;
11921;SDS011;6021;51.182;3.160;2023-04-24T09:19:53;7.23;;;4.37;;
11921;SDS011;6021;51.182;3.160;2023-04-24T09:22:27;5.60;;;4.37;;
11921;SDS011;6021;51.182;3.160;2023-04-24T09:25:06;6.23;;;4.10;;
11921;SDS011;6021;51.182;3.160;2023-04-24T09:27:35;8.33;;;4.17;;
11921;SDS011;6021;51.182;3.160;2023-04-24T09:30:16;8.03;;;4.43;;
11921;SDS011;6021;51.182;3.160;2023-04-24T09:32:46;8.60;;;3.87;;
11921;SDS011;6021;51.182;3.160;2023-04-24T09:35:19;8.40;;;3.93;;
11921;SDS011;6021;51.182;3.160;2023-04-24T09:37:49;7.27;;;4.00;;
11921;SDS011;6021;51.182;3.160;2023-04-24T09:40:19;7.83;;;4.00;;
11921;SDS011;6021;51.182;3.160;2023-04-24T09:42:53;5.80;;;4.20;;
11921;SDS011;6021;51.182;3.160;2023-04-24T09:45:36;7.90;;;4.07;;
11921;SDS011;6021;51.182;3.160;2023-04-24T09:48:09;8.80;;;3.90;;
11921;SDS011;6021;51.182;3.160;2023-04-24T09:50:45;9.63;;;3.97;;
11921;SDS011;6021;51.182;3.160;2023-04-24T09:53:14;7.90;;;3.63;;
11921;SDS011;6021;51.182;3.160;2023-04-24T09:55:49;7.30;;;3.50;;
11921;SDS011;6021;51.182;3.160;2023-04-24T09:58:26;7.63;;;3.10;;
11921;SDS011;6021;51.182;3.160;2023-04-24T10:00:58;6.77;;;3.07;;
11921;SDS011;6021;51.182;3.160;2023-04-24T10:09:06;6.93;;;3.00;;
11921;SDS011;6021;51.182;3.160;2023-04-24T10:11:36;6.90;;;3.07;;
11921;SDS011;6021;51.182;3.160;2023-04-24T10:14:17;6.23;;;3.20;;
11921;SDS011;6021;51.182;3.160;2023-04-24T10:16:50;7.07;;;3.57;;
11921;SDS011;6021;51.182;3.160;2023-04-24T10:19:31;6.40;;;3.20;;
11921;SDS011;6021;51.182;3.160;2023-04-24T10:21:57;5.03;;;2.70;;
11921;SDS011;6021;51.182;3.160;2023-04-24T10:24:31;6.13;;;2.90;;
11921;SDS011;6021;51.182;3.160;2023-04-24T10:27:09;6.33;;;2.93;;
11921;SDS011;6021;51.182;3.160;2023-04-24T10:29:43;7.33;;;3.03;;
11921;SDS011;6021;51.182;3.160;2023-04-24T10:32:15;7.07;;;2.70;;
11921;SDS011;6021;51.182;3.160;2023-04-24T10:34:47;5.83;;;2.87;;
11921;SDS011;6021;51.182;3.160;2023-04-24T10:37:26;6.73;;;2.80;;
11921;SDS011;6021;51.182;3.160;2023-04-24T10:39:57;5.10;;;2.73;;
11921;SDS011;6021;51.182;3.160;2023-04-24T10:42:27;4.80;;;2.90;;
11921;SDS011;6021;51.182;3.160;2023-04-24T10:45:16;7.60;;;2.77;;
11921;SDS011;6021;51.182;3.160;2023-04-24T10:51:15;6.03;;;2.60;;
11921;SDS011;6021;51.182;3.160;2023-04-24T10:53:30;5.90;;;2.10;;
11921;SDS011;6021;51.182;3.160;2023-04-24T10:56:05;4.73;;;2.30;;
11921;SDS011;6021;51.182;3.160;2023-04-24T10:58:37;6.13;;;2.30;;
11921;SDS011;6021;51.182;3.160;2023-04-24T11:01:38;5.80;;;2.00;;
11921;SDS011;6021;51.182;3.160;2023-04-24T11:04:19;6.77;;;2.10;;
11921;SDS011;6021;51.182;3.160;2023-04-24T11:06:57;4.37;;;1.90;;
11921;SDS011;6021;51.182;3.160;2023-04-24T11:12:50;5.70;;;1.80;;
11921;SDS011;6021;51.182;3.160;2023-04-24T11:15:24;4.87;;;1.80;;
11921;SDS011;6021;51.182;3.160;2023-04-24T11:17:50;5.83;;;1.93;;
11921;SDS011;6021;51.182;3.160;2023-04-24T11:20:25;3.57;;;1.77;;
11921;SDS011;6021;51.182;3.160;2023-04-24T11:23:04;4.27;;;2.00;;
11921;SDS011;6021;51.182;3.160;2023-04-24T11:28:16;4.43;;;1.90;;
11921;SDS011;6021;51.182;3.160;2023-04-24T11:30:48;2.57;;;1.53;;
11921;SDS011;6021;51.182;3.160;2023-04-24T11:33:20;5.87;;;1.70;;
11921;SDS011;6021;51.182;3.160;2023-04-24T11:35:49;2.73;;;1.53;;
11921;SDS011;6021;51.182;3.160;2023-04-24T11:38:19;3.77;;;1.50;;
11921;SDS011;6021;51.182;3.160;2023-04-24T11:40:57;5.33;;;1.63;;
11921;SDS011;6021;51.182;3.160;2023-04-24T11:43:29;5.03;;;1.77;;
11921;SDS011;6021;51.182;3.160;2023-04-24T11:46:03;3.97;;;1.60;;
11921;SDS011;6021;51.182;3.160;2023-04-24T11:48:36;3.47;;;1.50;;
11921;SDS011;6021;51.182;3.160;2023-04-24T11:51:03;3.90;;;1.60;;
11921;SDS011;6021;51.182;3.160;2023-04-24T11:53:32;2.53;;;1.60;;
11921;SDS011;6021;51.182;3.160;2023-04-24T11:56:04;3.07;;;1.50;;
11921;SDS011;6021;51.182;3.160;2023-04-24T11:58:38;3.97;;;1.80;;
11921;SDS011;6021;51.182;3.160;2023-04-24T12:01:07;2.60;;;1.60;;
11921;SDS011;6021;51.182;3.160;2023-04-24T12:03:47;3.30;;;1.70;;
11921;SDS011;6021;51.182;3.160;2023-04-24T12:06:21;3.80;;;1.60;;
11921;SDS011;6021;51.182;3.160;2023-04-24T12:08:52;4.03;;;1.60;;
11921;SDS011;6021;51.182;3.160;2023-04-24T12:11:23;3.07;;;1.50;;
11921;SDS011;6021;51.182;3.160;2023-04-24T12:13:54;4.03;;;1.40;;
11921;SDS011;6021;51.182;3.160;2023-04-24T12:16:25;2.80;;;1.40;;
11921;SDS011;6021;51.182;3.160;2023-04-24T12:18:59;2.70;;;1.40;;
11921;SDS011;6021;51.182;3.160;2023-04-24T12:21:30;2.53;;;1.50;;
11921;SDS011;6021;51.182;3.160;2023-04-24T12:24:05;3.30;;;1.70;;
11921;SDS011;6021;51.182;3.160;2023-04-24T12:26:43;4.37;;;1.60;;
11921;SDS011;6021;51.182;3.160;2023-04-24T12:29:07;2.57;;;1.50;;
11921;SDS011;6021;51.182;3.160;2023-04-24T12:32:15;2.53;;;1.43;;
11921;SDS011;6021;51.182;3.160;2023-04-24T12:34:44;3.17;;;1.40;;
11921;SDS011;6021;51.182;3.160;2023-04-24T12:37:20;3.47;;;1.40;;
11921;SDS011;6021;51.182;3.160;2023-04-24T12:39:59;3.27;;;1.50;;
11921;SDS011;6021;51.182;3.160;2023-04-24T12:42:31;3.10;;;1.70;;
11921;SDS011;6021;51.182;3.160;2023-04-24T12:45:05;3.87;;;1.63;;
11921;SDS011;6021;51.182;3.160;2023-04-24T12:47:41;2.10;;;1.30;;
11921;SDS011;6021;51.182;3.160;2023-04-24T12:50:19;2.13;;;1.20;;
11921;SDS011;6021;51.182;3.160;2023-04-24T12:52:54;2.97;;;1.40;;
11921;SDS011;6021;51.182;3.160;2023-04-24T12:55:26;4.07;;;1.50;;
11921;SDS011;6021;51.182;3.160;2023-04-24T12:58:02;2.63;;;1.30;;
11921;SDS011;6021;51.182;3.160;2023-04-24T13:00:29;2.47;;;1.30;;
11921;SDS011;6021;51.182;3.160;2023-04-24T13:03:10;2.20;;;1.40;;
11921;SDS011;6021;51.182;3.160;2023-04-24T13:05:33;1.27;;;1.10;;
11921;SDS011;6021;51.182;3.160;2023-04-24T13:08:04;1.43;;;1.10;;
11921;SDS011;6021;51.182;3.160;2023-04-24T13:10:35;3.50;;;1.20;;
11921;SDS011;6021;51.182;3.160;2023-04-24T13:13:03;1.23;;;1.10;;
11921;SDS011;6021;51.182;3.160;2023-04-24T13:15:44;2.97;;;1.40;;
11921;SDS011;6021;51.182;3.160;2023-04-24T13:18:05;2.73;;;1.30;;
11921;SDS011;6021;51.182;3.160;2023-04-24T13:20:34;3.33;;;1.40;;
11921;SDS011;6021;51.182;3.160;2023-04-24T13:23:08;2.73;;;1.63;;
11921;SDS011;6021;51.182;3.160;2023-04-24T13:25:43;2.97;;;1.47;;
11921;SDS011;6021;51.182;3.160;2023-04-24T13:28:14;3.03;;;1.40;;
11921;SDS011;6021;51.182;3.160;2023-04-24T13:30:51;4.10;;;1.93;;
11921;SDS011;6021;51.182;3.160;2023-04-24T13:33:20;3.47;;;1.80;;
11921;SDS011;6021;51.182;3.160;2023-04-24T13:35:49;3.77;;;1.77;;
11921;SDS011;6021;51.182;3.160;2023-04-24T13:38:17;3.03;;;1.67;;
11921;SDS011;6021;51.182;3.160;2023-04-24T13:40:52;2.90;;;1.47;;
11921;SDS011;6021;51.182;3.160;2023-04-24T13:43:20;3.47;;;1.50;;
11921;SDS011;6021;51.182;3.160;2023-04-24T13:45:51;4.07;;;1.97;;
11921;SDS011;6021;51.182;3.160;2023-04-24T13:48:21;3.10;;;1.60;;
11921;SDS011;6021;51.182;3.160;2023-04-24T13:50:52;3.37;;;1.80;;
11921;SDS011;6021;51.182;3.160;2023-04-24T13:53:31;3.37;;;1.60;;
11921;SDS011;6021;51.182;3.160;2023-04-24T13:56:05;3.00;;;1.77;;
11921;SDS011;6021;51.182;3.160;2023-04-24T13:58:36;2.63;;;1.70;;
11921;SDS011;6021;51.182;3.160;2023-04-24T14:01:15;2.90;;;1.80;;
11921;SDS011;6021;51.182;3.160;2023-04-24T14:03:45;3.43;;;1.70;;
11921;SDS011;6021;51.182;3.160;2023-04-24T14:06:38;3.30;;;1.70;;
11921;SDS011;6021;51.182;3.160;2023-04-24T14:09:05;3.67;;;1.87;;
11921;SDS011;6021;51.182;3.160;2023-04-24T14:11:44;2.60;;;1.70;;
11921;SDS011;6021;51.182;3.160;2023-04-24T14:14:17;4.03;;;1.60;;
11921;SDS011;6021;51.182;3.160;2023-04-24T14:16:54;3.97;;;1.97;;
11921;SDS011;6021;51.182;3.160;2023-04-24T14:19:44;4.60;;;2.30;;
11921;SDS011;6021;51.182;3.160;2023-04-24T14:22:16;2.53;;;1.63;;
11921;SDS011;6021;51.182;3.160;2023-04-24T14:28:06;3.13;;;2.00;;
11921;SDS011;6021;51.182;3.160;2023-04-24T14:38:52;4.27;;;2.30;;
11921;SDS011;6021;51.182;3.160;2023-04-24T14:41:33;3.83;;;2.07;;
11921;SDS011;6021;51.182;3.160;2023-04-24T14:47:08;2.47;;;1.63;;
11921;SDS011;6021;51.182;3.160;2023-04-24T14:49:52;2.20;;;1.60;;
11921;SDS011;6021;51.182;3.160;2023-04-24T14:55:12;4.00;;;1.83;;
11921;SDS011;6021;51.182;3.160;2023-04-24T14:57:37;3.77;;;1.77;;
11921;SDS011;6021;51.182;3.160;2023-04-24T15:00:12;4.07;;;1.73;;
11921;SDS011;6021;51.182;3.160;2023-04-24T15:02:38;2.40;;;1.60;;
11921;SDS011;6021;51.182;3.160;2023-04-24T15:05:10;2.40;;;1.53;;
11921;SDS011;6021;51.182;3.160;2023-04-24T15:07:40;3.20;;;2.07;;
11921;SDS011;6021;51.182;3.160;2023-04-24T15:10:17;2.40;;;1.83;;
11921;SDS011;6021;51.182;3.160;2023-04-24T15:12:50;3.80;;;1.80;;
11921;SDS011;6021;51.182;3.160;2023-04-24T15:15:19;3.80;;;1.73;;
11921;SDS011;6021;51.182;3.160;2023-04-24T15:17:50;4.53;;;1.83;;
11921;SDS011;6021;51.182;3.160;2023-04-24T15:20:34;4.33;;;1.93;;
11921;SDS011;6021;51.182;3.160;2023-04-24T15:26:03;3.90;;;2.00;;
11921;SDS011;6021;51.182;3.160;2023-04-24T15:28:38;4.37;;;2.13;;
11921;SDS011;6021;51.182;3.160;2023-04-24T15:31:09;3.00;;;1.80;;
11921;SDS011;6021;51.182;3.160;2023-04-24T15:34:02;2.77;;;1.80;;
11921;SDS011;6021;51.182;3.160;2023-04-24T15:36:32;3.27;;;1.83;;
11921;SDS011;6021;51.182;3.160;2023-04-24T15:39:02;3.27;;;1.87;;
11921;SDS011;6021;51.182;3.160;2023-04-24T15:41:32;2.97;;;2.03;;
11921;SDS011;6021;51.182;3.160;2023-04-24T15:49:52;3.80;;;2.20;;
11921;SDS011;6021;51.182;3.160;2023-04-24T16:02:51;3.47;;;2.00;;
11921;SDS011;6021;51.182;3.160;2023-04-24T16:05:24;3.83;;;2.27;;
11921;SDS011;6021;51.182;3.160;2023-04-24T16:07:58;4.60;;;2.00;;
11921;SDS011;6021;51.182;3.160;2023-04-24T16:10:26;4.20;;;2.10;;
11921;SDS011;6021;51.182;3.160;2023-04-24T16:12:58;5.07;;;2.37;;
11921;SDS011;6021;51.182;3.160;2023-04-24T16:15:35;5.13;;;2.70;;
11921;SDS011;6021;51.182;3.160;2023-04-24T16:26:05;5.20;;;2.20;;
11921;SDS011;6021;51.182;3.160;2023-04-24T16:28:35;4.20;;;2.10;;
11921;SDS011;6021;51.182;3.160;2023-04-24T16:31:11;3.90;;;2.30;;
11921;SDS011;6021;51.182;3.160;2023-04-24T16:33:49;4.07;;;2.30;;
11921;SDS011;6021;51.182;3.160;2023-04-24T16:39:08;4.70;;;2.50;;
11921;SDS011;6021;51.182;3.160;2023-04-24T16:41:38;4.00;;;2.40;;
11921;SDS011;6021;51.182;3.160;2023-04-24T16:44:07;4.33;;;2.40;;
11921;SDS011;6021;51.182;3.160;2023-04-24T16:46:39;4.97;;;2.50;;
11921;SDS011;6021;51.182;3.160;2023-04-24T16:49:09;3.97;;;2.60;;
11921;SDS011;6021;51.182;3.160;2023-04-24T17:09:51;4.00;;;2.23;;